Latest Coastal Weather Observations for Kalumburu

IDW60701

Issued at 11:21 am WST Tuesday 4 August 2015 (issued every 10 minutes, with the page automatically refreshed every 10 minutes)

About coastal observations | Map of coastal stations | Coastal observations for WA | Marine services | Other Formats
Station Details ID: 001019 Name: KALUMBURU Lat: -14.30 Lon: 126.65 Height: 23.0 m
Data from the previous 72 hours. | See also: Recent months at Kalumburu
Date/Time
WST
Temp

°C
Wind Pressure Rain
since 9am
mm
Weather Cloud Vis
km
Sea
Height
m
Swell
Dir
 
Speed
knots
Gust
knots
hPa Trend Height
m
Period
s
Dir
04/11:00am 31.1 E 10 17 1016.5 - 0.0 - - - - - - -
04/10:30am 30.3 ESE 13 20 1016.8 - 0.0 - - - - - - -
04/10:00am 29.3 ESE 14 23 1017.1 - 0.0 - - - - - - -
04/09:30am 29.1 ESE 13 23 1017.5 - 0.0 - - - - - - -
04/09:00am 28.4 ESE 13 23 1017.6 - 0.0 - - - - - - -
04/08:30am 27.9 ESE 12 21 1017.4 - 0.0 - - - - - - -
04/08:00am 26.7 ESE 13 21 1017.4 - 0.0 - - - - - - -
04/07:30am 25.6 ESE 12 20 1017.3 - 0.0 - - - - - - -
04/07:00am 24.0 ESE 8 14 1017.0 - 0.0 - - - - - - -
04/06:30am 21.1 SE 3 6 1016.6 - 0.0 - - - - - - -
04/06:00am 18.2 S 4 7 1016.2 - 0.0 - - - - - - -
04/05:30am 18.9 SW 5 7 1015.9 - 0.0 - - - - - - -
04/05:00am 19.0 SW 5 6 1015.5 - 0.0 - - - - - - -
04/04:30am 18.4 SW 4 7 1015.2 - 0.0 - - - - - - -
04/04:00am 18.9 WSW 5 7 1015.2 - 0.0 - - - - - - -
04/03:30am 17.8 SW 4 6 1015.3 - 0.0 - - - - - - -
04/03:00am 16.9 SW 1 3 1015.2 - 0.0 - - - - - - -
04/02:30am 17.2 CALM 0 0 1015.2 - 0.0 - - - - - - -
04/02:00am 17.7 CALM 0 0 1015.3 - 0.0 - - - - - - -
04/01:30am 17.6 S 1 3 1015.4 - 0.0 - - - - - - -
04/01:00am 18.0 CALM 0 0 1015.6 - 0.0 - - - - - - -
04/12:30am 18.0 CALM 0 0 1015.8 - 0.0 - - - - - - -
04/12:00am 18.5 CALM 0 0 1016.0 - 0.0 - - - - - - -
 
Date/Time
WST
Temp

°C
Wind Pressure Rain
since 9am
mm
Weather Cloud Vis
km
Sea
Height
m
Swell
Dir
 
Speed
knots
Gust
knots
hPa Trend Height
m
Period
s
Dir
03/11:30pm 18.9 CALM 0 3 1016.0 - 0.0 - - - - - - -
03/11:00pm 18.9 CALM 0 0 1016.0 - 0.0 - - - - - - -
03/10:30pm 19.3 CALM 0 0 1016.1 - 0.0 - - - - - - -
03/10:00pm 19.8 CALM 0 0 1016.1 - 0.0 - - - - - - -
03/09:30pm 20.1 CALM 0 0 1016.1 - 0.0 - - - - - - -
03/09:00pm 20.9 CALM 0 0 1016.2 - 0.0 - - - - - - -
03/08:30pm 21.4 CALM 0 0 1016.0 - 0.0 - - - - - - -
03/08:00pm 23.1 WNW 3 4 1016.0 - 0.0 - - - - - - -
03/07:30pm 23.6 W 4 6 1015.8 - 0.0 - - - - - - -
03/07:00pm 23.9 NNW 4 5 1015.4 - 0.0 - - - - - - -
03/06:30pm 24.5 N 5 7 1015.1 - 0.0 - - - - - - -
03/06:00pm 24.9 N 6 10 1015.0 - 0.0 - - - - - - -
03/05:30pm 25.8 N 8 14 1014.6 - 0.0 - - - - - - -
03/05:00pm 26.8 NNW 7 11 1014.3 - 0.0 - - - - - - -
03/04:30pm 27.6 NNW 9 13 1014.1 - 0.0 - - - - - - -
03/04:00pm 28.9 N 10 14 1013.8 - 0.0 - - - - - - -
03/03:30pm 29.2 NNW 12 16 1013.5 - 0.0 - - - - - - -
03/03:00pm 29.8 NNW 11 16 1013.3 - 0.0 - - - - - - -
03/02:30pm 31.0 NNW 10 16 1013.5 - 0.0 - - - - - - -
03/02:00pm 30.9 NNW 12 18 1013.7 - 0.0 - - - - - - -
03/01:30pm 30.8 NNW 11 16 1013.7 - 0.0 - - - - - - -
03/01:00pm 31.5 NNW 13 19 1014.0 - 0.0 - - - - - - -
03/12:30pm 31.5 NNW 9 17 1014.4 - 0.0 - - - - - - -
03/12:00pm 32.7 ENE 7 11 1014.9 - 0.0 - - - - - - -
03/11:30am 32.1 NE 9 14 1015.4 - 0.0 - - - - - - -
03/11:00am 32.3 NE 9 14 1015.8 - 0.0 - - - - - - -
03/10:30am 31.9 NNE 5 9 1016.2 - 0.0 - - - - - - -
03/10:00am 30.7 WNW 3 5 1016.6 - 0.0 - - - - - - -
03/09:30am 28.8 W 4 6 1016.9 - 0.0 - - - - - - -
03/09:00am 26.7 WSW 3 5 1016.9 - 0.0 - - - - - - -
03/08:30am 25.0 SSW 3 4 1016.8 - 0.0 - - - - - - -
03/08:00am 22.4 S 3 5 1016.5 - 0.0 - - - - - - -
03/07:30am 20.3 CALM 0 0 1016.4 - 0.0 - - - - - - -
03/07:00am 17.9 SE 1 4 1016.3 - 0.0 - - - - - - -
03/06:30am 15.7 CALM 0 0 1016.0 - 0.0 - - - - - - -
03/06:00am 14.8 CALM 0 0 1015.7 - 0.0 - - - - - - -
03/05:30am 14.3 CALM 0 0 1015.4 - 0.0 - - - - - - -
03/05:00am 15.5 CALM 0 0 1015.2 - 0.0 - - - - - - -
03/04:30am 15.5 CALM 0 0 1015.1 - 0.0 - - - - - - -
03/04:00am 15.6 CALM 0 0 1015.0 - 0.0 - - - - - - -
03/03:30am 15.7 CALM 0 0 1014.8 - 0.0 - - - - - - -
03/03:00am 15.9 CALM 0 0 1015.0 - 0.0 - - - - - - -
03/02:30am 16.4 CALM 0 0 1015.1 - 0.0 - - - - - - -
03/02:00am 16.2 CALM 0 0 1015.3 - 0.0 - - - - - - -
03/01:30am 16.4 CALM 0 0 1015.5 - 0.0 - - - - - - -
03/01:00am 17.6 CALM 0 0 1015.6 - 0.0 - - - - - - -
03/12:30am 17.3 CALM 0 0 1016.0 - 0.0 - - - - - - -
03/12:00am 17.7 CALM 0 0 1016.3 - 0.0 - - - - - - -
 
Date/Time
WST
Temp

°C
Wind Pressure Rain
since 9am
mm
Weather Cloud Vis
km
Sea
Height
m
Swell
Dir
 
Speed
knots
Gust
knots
hPa Trend Height
m
Period
s
Dir
02/11:30pm 18.3 CALM 0 0 1016.3 - 0.0 - - - - - - -
02/11:00pm 18.2 CALM 0 0 1016.3 - 0.0 - - - - - - -
02/10:30pm 19.2 SSE 2 4 1016.4 - 0.0 - - - - - - -
02/10:00pm 19.4 CALM 0 0 1016.5 - 0.0 - - - - - - -
02/09:30pm 19.8 CALM 0 0 1016.6 - 0.0 - - - - - - -
02/09:00pm 20.1 CALM 0 0 1016.6 - 0.0 - - - - - - -
02/08:30pm 21.9 NW 3 3 1016.4 - 0.0 - - - - - - -
02/08:00pm 23.2 NW 4 5 1016.1 - 0.0 - - - - - - -
02/07:30pm 23.6 NW 5 6 1015.6 - 0.0 - - - - - - -
02/07:00pm 24.2 NW 6 9 1015.1 - 0.0 - - - - - - -
02/06:30pm 24.5 NW 6 8 1014.7 - 0.0 - - - - - - -
02/06:00pm 25.0 WNW 3 6 1014.4 - 0.0 - - - - - - -
02/05:30pm 25.7 NNW 4 7 1014.1 - 0.0 - - - - - - -
02/05:00pm 27.0 NNW 7 10 1013.7 - 0.0 - - - - - - -
02/04:30pm 28.5 NW 7 11 1013.3 - 0.0 - - - - - - -
02/04:00pm 29.4 NNW 10 14 1013.3 - 0.0 - - - - - - -
02/03:30pm 29.8 NNW 11 16 1013.2 - 0.0 - - - - - - -
02/03:00pm 31.0 N 10 14 1012.9 - 0.0 - - - - - - -
02/02:30pm 31.6 N 13 19 1013.0 - 0.0 - - - - - - -
02/02:00pm 32.3 N 13 17 1013.1 - 0.0 - - - - - - -
02/01:30pm 33.7 NNE 9 16 1013.3 - 0.0 - - - - - - -
02/01:00pm 34.4 E 8 14 1013.6 - 0.0 - - - - - - -
02/12:30pm 34.4 ENE 9 16 1014.1 - 0.0 - - - - - - -
02/12:00pm 34.5 E 8 14 1014.5 - 0.0 - - - - - - -
02/11:30am 33.9 E 9 16 1015.1 - 0.0 - - - - - - -
02/11:00am 33.0 E 9 16 1015.7 - 0.0 - - - - - - -
02/10:30am 33.7 ESE 6 12 1016.0 - 0.0 - - - - - - -
02/10:00am 31.4 W 4 6 1016.2 - 0.0 - - - - - - -
02/09:30am 29.8 S 4 6 1016.5 - 0.0 - - - - - - -
02/09:00am 28.3 S 4 5 1016.7 - 0.0 - - - - - - -
02/08:30am 25.3 S 4 5 1016.7 - 0.0 - - - - - - -
02/08:00am 23.2 S 4 5 1016.6 - 0.0 - - - - - - -
02/07:30am 21.3 S 4 7 1016.3 - 0.0 - - - - - - -
02/07:00am 18.2 S 3 4 1016.1 - 0.0 - - - - - - -
02/06:30am 14.3 S 2 4 1015.9 - 0.0 - - - - - - -
02/06:00am 13.3 CALM 0 0 1015.6 - 0.0 - - - - - - -
02/05:30am 13.1 CALM 0 0 1015.4 - 0.0 - - - - - - -
02/05:00am 13.4 CALM 0 0 1015.0 - 0.0 - - - - - - -
02/04:30am 13.7 CALM 0 0 1014.7 - 0.0 - - - - - - -
02/04:00am 13.9 CALM 0 0 1014.8 - 0.0 - - - - - - -
02/03:30am 14.2 SE 1 3 1014.9 - 0.0 - - - - - - -
02/03:00am 14.2 CALM 0 0 1014.8 - 0.0 - - - - - - -
02/02:30am 14.6 CALM 0 0 1015.1 - 0.0 - - - - - - -
02/02:00am 14.9 CALM 0 0 1015.1 - 0.0 - - - - - - -
02/01:30am 15.3 CALM 0 0 1015.2 - 0.0 - - - - - - -
02/01:00am 15.7 CALM 0 0 1015.3 - 0.0 - - - - - - -
02/12:30am 15.8 S 3 5 1015.5 - 0.0 - - - - - - -
02/12:00am 16.3 CALM 0 0 1015.5 - 0.0 - - - - - - -
 
Date/Time
WST
Temp

°C
Wind Pressure Rain
since 9am
mm
Weather Cloud Vis
km
Sea
Height
m
Swell
Dir
 
Speed
knots
Gust
knots
hPa Trend Height
m
Period
s
Dir
01/11:30pm 16.4 CALM 0 0 1015.5 - 0.0 - - - - - - -
01/11:00pm 17.3 SW 1 3 1015.5 - 0.0 - - - - - - -
01/10:30pm 18.0 CALM 0 0 1015.6 - 0.0 - - - - - - -
01/10:00pm 18.2 CALM 0 0 1015.5 - 0.0 - - - - - - -
01/09:30pm 18.5 ESE 1 3 1015.6 - 0.0 - - - - - - -
01/09:00pm 19.4 ESE 3 4 1015.4 - 0.0 - - - - - - -
01/08:30pm 19.7 ESE 3 4 1015.4 - 0.0 - - - - - - -
01/08:00pm 20.8 CALM 0 0 1015.2 - 0.0 - - - - - - -
01/07:30pm 21.4 CALM 0 0 1015.0 - 0.0 - - - - - - -
01/07:00pm 21.9 NE 2 4 1014.5 - 0.0 - - - - - - -
01/06:30pm 24.4 NW 4 5 1014.0 - 0.0 - - - - - - -
01/06:00pm 25.6 N 3 5 1013.5 - 0.0 - - - - - - -
01/05:30pm 27.1 N 6 8 1013.1 - 0.0 - - - - - - -
01/05:00pm 28.4 NNW 7 10 1012.8 - 0.0 - - - - - - -
01/04:30pm 29.6 NNW 7 11 1012.8 - 0.0 - - - - - - -
01/04:00pm 30.9 NNW 7 11 1012.6 - 0.0 - - - - - - -
01/03:30pm 31.4 N 10 15 1012.4 - 0.0 - - - - - - -
01/03:00pm 33.0 NNW 9 12 1012.2 - 0.0 - - - - - - -
01/02:30pm 33.1 N 8 15 1012.3 - 0.0 - - - - - - -
01/02:00pm 33.6 NNW 7 11 1012.5 - 0.0 - - - - - - -
01/01:30pm 33.6 N 8 12 1012.7 - 0.0 - - - - - - -
01/01:00pm 33.6 SSW 5 8 1013.2 - 0.0 - - - - - - -
01/12:30pm 32.9 NW 4 8 1013.8 - 0.0 - - - - - - -
01/12:00pm 33.4 SSE 5 9 1014.3 - 0.0 - - - - - - -
01/11:30am 32.1 ESE 7 13 1015.0 - 0.0 - - - - - - -

Other Formats:

Comma delimited format used in spreadsheet applications
http://www.bom.gov.au/fwo/IDW60701/IDW60701.94100.axf

JavaScript Object Notation format (JSON) in row-major order
http://www.bom.gov.au/fwo/IDW60701/IDW60701.94100.json